sensor_id;sensor_type;location;lat;lon;timestamp;P1;durP1;ratioP1;P2;durP2;ratioP2
4432;SDS011;2229;48.708;9.706;2022-09-09T00:01:08;1.33;;;0.60;;
4432;SDS011;2229;48.708;9.706;2022-09-09T00:03:47;2.97;;;0.83;;
4432;SDS011;2229;48.708;9.706;2022-09-09T00:06:22;1.23;;;0.60;;
4432;SDS011;2229;48.708;9.706;2022-09-09T00:08:58;1.50;;;0.60;;
4432;SDS011;2229;48.708;9.706;2022-09-09T00:11:32;1.30;;;0.50;;
4432;SDS011;2229;48.708;9.706;2022-09-09T00:14:07;1.20;;;0.60;;
4432;SDS011;2229;48.708;9.706;2022-09-09T00:16:40;1.23;;;0.60;;
4432;SDS011;2229;48.708;9.706;2022-09-09T00:19:12;2.33;;;1.10;;
4432;SDS011;2229;48.708;9.706;2022-09-09T00:21:47;1.43;;;0.70;;
4432;SDS011;2229;48.708;9.706;2022-09-09T00:24:23;1.40;;;0.50;;
4432;SDS011;2229;48.708;9.706;2022-09-09T00:26:55;1.70;;;0.80;;
4432;SDS011;2229;48.708;9.706;2022-09-09T00:29:32;1.60;;;0.50;;
4432;SDS011;2229;48.708;9.706;2022-09-09T00:32:07;3.20;;;1.00;;
4432;SDS011;2229;48.708;9.706;2022-09-09T00:34:39;1.20;;;0.60;;
4432;SDS011;2229;48.708;9.706;2022-09-09T00:37:11;4.30;;;0.80;;
4432;SDS011;2229;48.708;9.706;2022-09-09T00:39:39;1.20;;;0.60;;
4432;SDS011;2229;48.708;9.706;2022-09-09T00:42:13;1.77;;;0.80;;
4432;SDS011;2229;48.708;9.706;2022-09-09T00:44:50;1.53;;;0.70;;
4432;SDS011;2229;48.708;9.706;2022-09-09T00:47:41;3.20;;;0.70;;
4432;SDS011;2229;48.708;9.706;2022-09-09T00:50:17;1.10;;;0.53;;
4432;SDS011;2229;48.708;9.706;2022-09-09T00:53:14;19.07;;;1.30;;
4432;SDS011;2229;48.708;9.706;2022-09-09T00:55:49;2.87;;;1.00;;
4432;SDS011;2229;48.708;9.706;2022-09-09T00:58:22;1.40;;;0.60;;
4432;SDS011;2229;48.708;9.706;2022-09-09T01:00:52;1.23;;;0.50;;
4432;SDS011;2229;48.708;9.706;2022-09-09T01:03:27;2.57;;;0.93;;
4432;SDS011;2229;48.708;9.706;2022-09-09T01:06:12;1.93;;;0.70;;
4432;SDS011;2229;48.708;9.706;2022-09-09T01:11:52;8.83;;;0.90;;
4432;SDS011;2229;48.708;9.706;2022-09-09T01:14:32;1.93;;;0.73;;
4432;SDS011;2229;48.708;9.706;2022-09-09T01:17:11;1.00;;;0.40;;
4432;SDS011;2229;48.708;9.706;2022-09-09T01:19:55;1.20;;;0.67;;
4432;SDS011;2229;48.708;9.706;2022-09-09T01:22:35;3.47;;;0.57;;
4432;SDS011;2229;48.708;9.706;2022-09-09T01:28:26;1.00;;;0.40;;
4432;SDS011;2229;48.708;9.706;2022-09-09T01:31:00;2.13;;;0.97;;
4432;SDS011;2229;48.708;9.706;2022-09-09T01:33:36;1.57;;;0.70;;
4432;SDS011;2229;48.708;9.706;2022-09-09T01:36:04;2.30;;;0.87;;
4432;SDS011;2229;48.708;9.706;2022-09-09T01:38:42;1.40;;;0.87;;
4432;SDS011;2229;48.708;9.706;2022-09-09T01:41:10;1.40;;;0.83;;
4432;SDS011;2229;48.708;9.706;2022-09-09T01:44:01;1.30;;;0.50;;
4432;SDS011;2229;48.708;9.706;2022-09-09T01:46:30;1.67;;;0.80;;
4432;SDS011;2229;48.708;9.706;2022-09-09T01:48:59;2.30;;;0.80;;
4432;SDS011;2229;48.708;9.706;2022-09-09T01:51:29;1.40;;;0.70;;
4432;SDS011;2229;48.708;9.706;2022-09-09T01:54:00;2.30;;;0.70;;
4432;SDS011;2229;48.708;9.706;2022-09-09T01:56:33;5.37;;;0.80;;
4432;SDS011;2229;48.708;9.706;2022-09-09T01:59:14;1.60;;;0.80;;
4432;SDS011;2229;48.708;9.706;2022-09-09T02:01:57;2.43;;;1.00;;
4432;SDS011;2229;48.708;9.706;2022-09-09T02:04:36;5.53;;;0.90;;
4432;SDS011;2229;48.708;9.706;2022-09-09T02:07:24;1.70;;;0.80;;
4432;SDS011;2229;48.708;9.706;2022-09-09T02:10:05;1.60;;;0.63;;
4432;SDS011;2229;48.708;9.706;2022-09-09T02:12:41;1.40;;;0.80;;
4432;SDS011;2229;48.708;9.706;2022-09-09T02:15:16;1.80;;;0.90;;
4432;SDS011;2229;48.708;9.706;2022-09-09T02:17:48;3.43;;;0.83;;
4432;SDS011;2229;48.708;9.706;2022-09-09T02:20:19;3.47;;;1.10;;
4432;SDS011;2229;48.708;9.706;2022-09-09T02:23:05;1.60;;;0.80;;
4432;SDS011;2229;48.708;9.706;2022-09-09T02:25:35;3.03;;;1.00;;
4432;SDS011;2229;48.708;9.706;2022-09-09T02:28:17;1.20;;;0.50;;
4432;SDS011;2229;48.708;9.706;2022-09-09T02:30:46;3.53;;;0.90;;
4432;SDS011;2229;48.708;9.706;2022-09-09T02:33:21;2.43;;;0.87;;
4432;SDS011;2229;48.708;9.706;2022-09-09T02:35:51;7.07;;;0.87;;
4432;SDS011;2229;48.708;9.706;2022-09-09T02:38:22;1.93;;;0.80;;
4432;SDS011;2229;48.708;9.706;2022-09-09T02:41:01;1.23;;;0.57;;
4432;SDS011;2229;48.708;9.706;2022-09-09T02:43:32;2.33;;;1.00;;
4432;SDS011;2229;48.708;9.706;2022-09-09T02:46:03;2.07;;;0.87;;
4432;SDS011;2229;48.708;9.706;2022-09-09T02:48:36;1.47;;;0.93;;
4432;SDS011;2229;48.708;9.706;2022-09-09T02:51:14;2.07;;;1.07;;
4432;SDS011;2229;48.708;9.706;2022-09-09T02:53:47;5.47;;;0.83;;
4432;SDS011;2229;48.708;9.706;2022-09-09T02:56:21;4.33;;;0.90;;
4432;SDS011;2229;48.708;9.706;2022-09-09T02:58:56;10.57;;;1.40;;
4432;SDS011;2229;48.708;9.706;2022-09-09T03:01:24;2.30;;;0.50;;
4432;SDS011;2229;48.708;9.706;2022-09-09T03:03:51;1.20;;;0.60;;
4432;SDS011;2229;48.708;9.706;2022-09-09T03:06:20;1.57;;;0.70;;
4432;SDS011;2229;48.708;9.706;2022-09-09T03:08:54;1.50;;;0.80;;
4432;SDS011;2229;48.708;9.706;2022-09-09T03:11:26;1.60;;;0.50;;
4432;SDS011;2229;48.708;9.706;2022-09-09T03:13:53;3.60;;;0.90;;
4432;SDS011;2229;48.708;9.706;2022-09-09T03:16:23;1.73;;;0.70;;
4432;SDS011;2229;48.708;9.706;2022-09-09T03:18:52;3.30;;;1.20;;
4432;SDS011;2229;48.708;9.706;2022-09-09T03:21:19;3.60;;;0.83;;
4432;SDS011;2229;48.708;9.706;2022-09-09T03:23:47;2.20;;;1.00;;
4432;SDS011;2229;48.708;9.706;2022-09-09T03:26:15;9.30;;;3.60;;
4432;SDS011;2229;48.708;9.706;2022-09-09T03:28:44;14.13;;;4.70;;
4432;SDS011;2229;48.708;9.706;2022-09-09T03:31:17;11.13;;;4.67;;
4432;SDS011;2229;48.708;9.706;2022-09-09T03:33:45;8.23;;;3.80;;
4432;SDS011;2229;48.708;9.706;2022-09-09T03:36:15;11.63;;;3.67;;
4432;SDS011;2229;48.708;9.706;2022-09-09T03:38:42;24.33;;;3.90;;
4432;SDS011;2229;48.708;9.706;2022-09-09T03:41:11;9.27;;;3.33;;
4432;SDS011;2229;48.708;9.706;2022-09-09T03:43:38;6.37;;;3.47;;
4432;SDS011;2229;48.708;9.706;2022-09-09T03:46:07;3.90;;;1.70;;
4432;SDS011;2229;48.708;9.706;2022-09-09T03:48:35;3.27;;;1.30;;
4432;SDS011;2229;48.708;9.706;2022-09-09T03:51:04;2.30;;;1.07;;
4432;SDS011;2229;48.708;9.706;2022-09-09T03:53:32;1.87;;;1.00;;
4432;SDS011;2229;48.708;9.706;2022-09-09T03:56:00;2.40;;;1.00;;
4432;SDS011;2229;48.708;9.706;2022-09-09T03:58:29;3.43;;;1.00;;
4432;SDS011;2229;48.708;9.706;2022-09-09T04:01:02;5.57;;;1.10;;
4432;SDS011;2229;48.708;9.706;2022-09-09T04:03:31;5.63;;;1.03;;
4432;SDS011;2229;48.708;9.706;2022-09-09T04:06:00;2.70;;;0.77;;
4432;SDS011;2229;48.708;9.706;2022-09-09T04:08:30;11.07;;;1.47;;
4432;SDS011;2229;48.708;9.706;2022-09-09T04:10:59;1.20;;;0.60;;
4432;SDS011;2229;48.708;9.706;2022-09-09T04:13:27;2.90;;;0.67;;
4432;SDS011;2229;48.708;9.706;2022-09-09T04:15:57;6.13;;;0.90;;
4432;SDS011;2229;48.708;9.706;2022-09-09T04:18:25;2.90;;;0.90;;
4432;SDS011;2229;48.708;9.706;2022-09-09T04:20:53;7.90;;;1.40;;
4432;SDS011;2229;48.708;9.706;2022-09-09T04:23:26;2.70;;;1.33;;
4432;SDS011;2229;48.708;9.706;2022-09-09T04:25:57;1.47;;;0.70;;
4432;SDS011;2229;48.708;9.706;2022-09-09T04:28:26;2.70;;;1.23;;
4432;SDS011;2229;48.708;9.706;2022-09-09T04:30:55;3.57;;;0.83;;
4432;SDS011;2229;48.708;9.706;2022-09-09T04:33:23;3.67;;;0.80;;
4432;SDS011;2229;48.708;9.706;2022-09-09T04:35:53;1.80;;;1.10;;
4432;SDS011;2229;48.708;9.706;2022-09-09T04:38:22;2.30;;;0.73;;
4432;SDS011;2229;48.708;9.706;2022-09-09T04:40:51;3.80;;;0.90;;
4432;SDS011;2229;48.708;9.706;2022-09-09T04:43:20;4.50;;;0.90;;
4432;SDS011;2229;48.708;9.706;2022-09-09T04:45:49;1.40;;;0.70;;
4432;SDS011;2229;48.708;9.706;2022-09-09T04:48:19;2.30;;;0.90;;
4432;SDS011;2229;48.708;9.706;2022-09-09T04:50:53;1.33;;;0.70;;
4432;SDS011;2229;48.708;9.706;2022-09-09T04:53:22;3.67;;;1.17;;
4432;SDS011;2229;48.708;9.706;2022-09-09T04:55:52;13.07;;;1.37;;
4432;SDS011;2229;48.708;9.706;2022-09-09T04:58:29;5.57;;;1.50;;
4432;SDS011;2229;48.708;9.706;2022-09-09T05:01:02;1.70;;;1.00;;
4432;SDS011;2229;48.708;9.706;2022-09-09T05:03:30;4.13;;;1.83;;
4432;SDS011;2229;48.708;9.706;2022-09-09T05:06:02;3.57;;;1.40;;
4432;SDS011;2229;48.708;9.706;2022-09-09T05:08:30;2.43;;;1.00;;
4432;SDS011;2229;48.708;9.706;2022-09-09T05:10:59;1.87;;;0.90;;
4432;SDS011;2229;48.708;9.706;2022-09-09T05:13:26;2.37;;;0.90;;
4432;SDS011;2229;48.708;9.706;2022-09-09T05:15:54;1.53;;;0.93;;
4432;SDS011;2229;48.708;9.706;2022-09-09T05:18:22;1.80;;;0.80;;
4432;SDS011;2229;48.708;9.706;2022-09-09T05:20:51;4.83;;;1.50;;
4432;SDS011;2229;48.708;9.706;2022-09-09T05:23:19;3.47;;;0.73;;
4432;SDS011;2229;48.708;9.706;2022-09-09T05:25:54;2.60;;;0.97;;
4432;SDS011;2229;48.708;9.706;2022-09-09T05:28:24;1.90;;;0.83;;
4432;SDS011;2229;48.708;9.706;2022-09-09T05:30:59;1.40;;;0.80;;
4432;SDS011;2229;48.708;9.706;2022-09-09T05:33:30;4.63;;;1.40;;
4432;SDS011;2229;48.708;9.706;2022-09-09T05:35:59;2.33;;;0.90;;
4432;SDS011;2229;48.708;9.706;2022-09-09T05:38:28;1.60;;;0.87;;
4432;SDS011;2229;48.708;9.706;2022-09-09T05:40:56;1.43;;;0.70;;
4432;SDS011;2229;48.708;9.706;2022-09-09T05:43:25;1.30;;;0.80;;
4432;SDS011;2229;48.708;9.706;2022-09-09T05:46:00;2.00;;;1.00;;
4432;SDS011;2229;48.708;9.706;2022-09-09T05:48:29;2.10;;;0.70;;
4432;SDS011;2229;48.708;9.706;2022-09-09T05:50:57;2.60;;;0.67;;
4432;SDS011;2229;48.708;9.706;2022-09-09T05:53:25;1.93;;;0.70;;
4432;SDS011;2229;48.708;9.706;2022-09-09T05:55:59;3.20;;;0.90;;
4432;SDS011;2229;48.708;9.706;2022-09-09T05:58:30;1.40;;;0.83;;
4432;SDS011;2229;48.708;9.706;2022-09-09T06:01:02;5.10;;;1.13;;
4432;SDS011;2229;48.708;9.706;2022-09-09T06:03:31;1.60;;;0.90;;
4432;SDS011;2229;48.708;9.706;2022-09-09T06:05:59;3.00;;;0.77;;
4432;SDS011;2229;48.708;9.706;2022-09-09T06:08:27;2.03;;;0.80;;
4432;SDS011;2229;48.708;9.706;2022-09-09T06:11:00;3.30;;;0.80;;
4432;SDS011;2229;48.708;9.706;2022-09-09T06:13:54;1.43;;;0.60;;
4432;SDS011;2229;48.708;9.706;2022-09-09T06:16:22;2.53;;;1.07;;
4432;SDS011;2229;48.708;9.706;2022-09-09T06:18:52;2.40;;;1.10;;
4432;SDS011;2229;48.708;9.706;2022-09-09T06:21:21;6.40;;;1.40;;
4432;SDS011;2229;48.708;9.706;2022-09-09T06:23:50;2.00;;;1.20;;
4432;SDS011;2229;48.708;9.706;2022-09-09T06:26:22;2.13;;;0.83;;
4432;SDS011;2229;48.708;9.706;2022-09-09T06:28:57;2.23;;;0.90;;
4432;SDS011;2229;48.708;9.706;2022-09-09T06:31:25;2.63;;;0.83;;
4432;SDS011;2229;48.708;9.706;2022-09-09T06:33:57;1.20;;;0.60;;
4432;SDS011;2229;48.708;9.706;2022-09-09T06:36:26;2.30;;;0.70;;
4432;SDS011;2229;48.708;9.706;2022-09-09T06:38:54;1.27;;;0.60;;
4432;SDS011;2229;48.708;9.706;2022-09-09T06:41:23;3.87;;;0.80;;
4432;SDS011;2229;48.708;9.706;2022-09-09T06:43:51;1.63;;;0.60;;
4432;SDS011;2229;48.708;9.706;2022-09-09T06:46:30;2.90;;;0.77;;
4432;SDS011;2229;48.708;9.706;2022-09-09T06:48:59;1.80;;;0.80;;
4432;SDS011;2229;48.708;9.706;2022-09-09T06:51:28;1.47;;;0.60;;
4432;SDS011;2229;48.708;9.706;2022-09-09T06:53:57;1.40;;;0.57;;
4432;SDS011;2229;48.708;9.706;2022-09-09T06:56:26;3.10;;;1.00;;
4432;SDS011;2229;48.708;9.706;2022-09-09T06:58:55;3.00;;;1.30;;
4432;SDS011;2229;48.708;9.706;2022-09-09T07:01:29;1.93;;;0.70;;
4432;SDS011;2229;48.708;9.706;2022-09-09T07:04:00;1.70;;;0.60;;
4432;SDS011;2229;48.708;9.706;2022-09-09T07:06:33;1.60;;;0.70;;
4432;SDS011;2229;48.708;9.706;2022-09-09T07:09:03;1.60;;;0.60;;
4432;SDS011;2229;48.708;9.706;2022-09-09T07:11:32;1.77;;;0.80;;
4432;SDS011;2229;48.708;9.706;2022-09-09T07:14:03;1.60;;;0.83;;
4432;SDS011;2229;48.708;9.706;2022-09-09T07:16:31;1.40;;;0.53;;
4432;SDS011;2229;48.708;9.706;2022-09-09T07:19:01;1.60;;;0.73;;
4432;SDS011;2229;48.708;9.706;2022-09-09T07:21:29;2.03;;;0.83;;
4432;SDS011;2229;48.708;9.706;2022-09-09T07:23:57;1.57;;;0.77;;
4432;SDS011;2229;48.708;9.706;2022-09-09T07:26:25;1.10;;;0.43;;
4432;SDS011;2229;48.708;9.706;2022-09-09T07:28:55;2.67;;;0.80;;
4432;SDS011;2229;48.708;9.706;2022-09-09T07:31:23;1.20;;;0.60;;
4432;SDS011;2229;48.708;9.706;2022-09-09T07:33:54;2.80;;;0.87;;
4432;SDS011;2229;48.708;9.706;2022-09-09T07:36:22;1.20;;;0.60;;
4432;SDS011;2229;48.708;9.706;2022-09-09T07:38:52;1.33;;;0.80;;
4432;SDS011;2229;48.708;9.706;2022-09-09T07:41:22;1.43;;;0.57;;
4432;SDS011;2229;48.708;9.706;2022-09-09T07:43:51;1.57;;;0.70;;
4432;SDS011;2229;48.708;9.706;2022-09-09T07:46:19;2.10;;;0.83;;
4432;SDS011;2229;48.708;9.706;2022-09-09T07:48:50;1.30;;;0.70;;
4432;SDS011;2229;48.708;9.706;2022-09-09T07:51:22;2.47;;;0.80;;
4432;SDS011;2229;48.708;9.706;2022-09-09T07:53:52;1.50;;;0.60;;
4432;SDS011;2229;48.708;9.706;2022-09-09T07:56:21;1.60;;;0.90;;
4432;SDS011;2229;48.708;9.706;2022-09-09T07:58:50;1.93;;;0.60;;
4432;SDS011;2229;48.708;9.706;2022-09-09T08:01:19;1.83;;;1.00;;
4432;SDS011;2229;48.708;9.706;2022-09-09T08:03:55;1.70;;;0.90;;
4432;SDS011;2229;48.708;9.706;2022-09-09T08:06:28;1.57;;;0.73;;
4432;SDS011;2229;48.708;9.706;2022-09-09T08:09:01;1.53;;;0.60;;
4432;SDS011;2229;48.708;9.706;2022-09-09T08:11:30;2.43;;;0.80;;
4432;SDS011;2229;48.708;9.706;2022-09-09T08:13:58;1.30;;;0.70;;
4432;SDS011;2229;48.708;9.706;2022-09-09T08:16:26;1.20;;;0.50;;
4432;SDS011;2229;48.708;9.706;2022-09-09T08:18:55;2.83;;;1.00;;
4432;SDS011;2229;48.708;9.706;2022-09-09T08:21:23;1.30;;;0.60;;
4432;SDS011;2229;48.708;9.706;2022-09-09T08:23:56;1.23;;;0.60;;
4432;SDS011;2229;48.708;9.706;2022-09-09T08:26:26;1.63;;;0.97;;
4432;SDS011;2229;48.708;9.706;2022-09-09T08:29:15;1.40;;;0.67;;
4432;SDS011;2229;48.708;9.706;2022-09-09T08:31:44;1.40;;;0.60;;
4432;SDS011;2229;48.708;9.706;2022-09-09T08:34:13;1.10;;;0.53;;
4432;SDS011;2229;48.708;9.706;2022-09-09T08:36:43;1.50;;;0.77;;
4432;SDS011;2229;48.708;9.706;2022-09-09T08:39:14;1.53;;;0.70;;
4432;SDS011;2229;48.708;9.706;2022-09-09T08:41:47;1.60;;;0.70;;
4432;SDS011;2229;48.708;9.706;2022-09-09T08:44:29;1.10;;;0.50;;
4432;SDS011;2229;48.708;9.706;2022-09-09T08:47:09;2.10;;;0.97;;
4432;SDS011;2229;48.708;9.706;2022-09-09T08:49:49;1.20;;;0.50;;
4432;SDS011;2229;48.708;9.706;2022-09-09T08:52:27;2.13;;;0.77;;
4432;SDS011;2229;48.708;9.706;2022-09-09T08:55:02;1.20;;;0.60;;
4432;SDS011;2229;48.708;9.706;2022-09-09T08:57:38;1.57;;;0.70;;
4432;SDS011;2229;48.708;9.706;2022-09-09T09:00:07;3.00;;;0.50;;
4432;SDS011;2229;48.708;9.706;2022-09-09T09:02:46;1.00;;;0.40;;
4432;SDS011;2229;48.708;9.706;2022-09-09T09:05:22;1.00;;;0.40;;
4432;SDS011;2229;48.708;9.706;2022-09-09T09:07:59;1.93;;;0.40;;
4432;SDS011;2229;48.708;9.706;2022-09-09T09:10:41;1.53;;;0.57;;
4432;SDS011;2229;48.708;9.706;2022-09-09T09:13:18;1.20;;;0.57;;
4432;SDS011;2229;48.708;9.706;2022-09-09T09:15:52;1.50;;;0.60;;
4432;SDS011;2229;48.708;9.706;2022-09-09T09:18:24;1.47;;;0.50;;
4432;SDS011;2229;48.708;9.706;2022-09-09T09:20:56;1.00;;;0.40;;
4432;SDS011;2229;48.708;9.706;2022-09-09T09:23:32;1.20;;;0.50;;
4432;SDS011;2229;48.708;9.706;2022-09-09T09:26:07;1.87;;;0.60;;
4432;SDS011;2229;48.708;9.706;2022-09-09T09:28:37;7.40;;;0.70;;
4432;SDS011;2229;48.708;9.706;2022-09-09T09:31:12;1.40;;;0.60;;
4432;SDS011;2229;48.708;9.706;2022-09-09T09:33:45;1.60;;;0.67;;
4432;SDS011;2229;48.708;9.706;2022-09-09T09:36:17;1.33;;;0.50;;
4432;SDS011;2229;48.708;9.706;2022-09-09T09:38:53;4.83;;;1.20;;
4432;SDS011;2229;48.708;9.706;2022-09-09T09:41:30;4.03;;;0.60;;
4432;SDS011;2229;48.708;9.706;2022-09-09T09:44:00;1.20;;;0.50;;
4432;SDS011;2229;48.708;9.706;2022-09-09T09:46:28;1.20;;;0.50;;
4432;SDS011;2229;48.708;9.706;2022-09-09T09:49:04;2.03;;;0.60;;
4432;SDS011;2229;48.708;9.706;2022-09-09T09:51:37;1.63;;;0.77;;
4432;SDS011;2229;48.708;9.706;2022-09-09T09:54:08;1.20;;;0.60;;
4432;SDS011;2229;48.708;9.706;2022-09-09T09:56:46;3.73;;;1.03;;
4432;SDS011;2229;48.708;9.706;2022-09-09T09:59:23;2.13;;;0.43;;
4432;SDS011;2229;48.708;9.706;2022-09-09T10:02:14;4.23;;;0.77;;
4432;SDS011;2229;48.708;9.706;2022-09-09T10:04:45;1.30;;;0.47;;
4432;SDS011;2229;48.708;9.706;2022-09-09T10:07:13;1.30;;;0.73;;
4432;SDS011;2229;48.708;9.706;2022-09-09T10:09:44;1.67;;;0.50;;
4432;SDS011;2229;48.708;9.706;2022-09-09T10:12:19;1.50;;;0.73;;
4432;SDS011;2229;48.708;9.706;2022-09-09T10:14:58;1.40;;;0.60;;
4432;SDS011;2229;48.708;9.706;2022-09-09T10:17:35;1.10;;;0.50;;
4432;SDS011;2229;48.708;9.706;2022-09-09T10:20:13;2.03;;;0.60;;
4432;SDS011;2229;48.708;9.706;2022-09-09T10:22:50;1.00;;;0.40;;
4432;SDS011;2229;48.708;9.706;2022-09-09T10:25:24;1.10;;;0.60;;
4432;SDS011;2229;48.708;9.706;2022-09-09T10:28:10;1.77;;;0.70;;
4432;SDS011;2229;48.708;9.706;2022-09-09T10:31:00;1.50;;;0.70;;
4432;SDS011;2229;48.708;9.706;2022-09-09T10:33:37;1.00;;;0.50;;
4432;SDS011;2229;48.708;9.706;2022-09-09T10:36:16;2.30;;;1.00;;
4432;SDS011;2229;48.708;9.706;2022-09-09T10:38:47;1.83;;;0.80;;
4432;SDS011;2229;48.708;9.706;2022-09-09T10:41:19;1.60;;;0.80;;
4432;SDS011;2229;48.708;9.706;2022-09-09T10:43:58;1.50;;;0.70;;
4432;SDS011;2229;48.708;9.706;2022-09-09T10:46:44;1.37;;;0.53;;
4432;SDS011;2229;48.708;9.706;2022-09-09T10:49:22;2.33;;;0.67;;
4432;SDS011;2229;48.708;9.706;2022-09-09T10:52:01;1.10;;;0.50;;
4432;SDS011;2229;48.708;9.706;2022-09-09T10:54:39;1.33;;;0.50;;
4432;SDS011;2229;48.708;9.706;2022-09-09T10:57:17;1.23;;;0.57;;
4432;SDS011;2229;48.708;9.706;2022-09-09T10:59:52;4.30;;;0.70;;
4432;SDS011;2229;48.708;9.706;2022-09-09T11:02:27;1.53;;;0.60;;
4432;SDS011;2229;48.708;9.706;2022-09-09T11:04:57;3.73;;;1.03;;
4432;SDS011;2229;48.708;9.706;2022-09-09T11:07:32;1.20;;;0.50;;
4432;SDS011;2229;48.708;9.706;2022-09-09T11:10:06;1.30;;;0.60;;
4432;SDS011;2229;48.708;9.706;2022-09-09T11:12:42;2.13;;;0.57;;
4432;SDS011;2229;48.708;9.706;2022-09-09T11:15:16;1.10;;;0.40;;
4432;SDS011;2229;48.708;9.706;2022-09-09T11:17:47;1.10;;;0.50;;
4432;SDS011;2229;48.708;9.706;2022-09-09T11:20:19;4.20;;;0.70;;
4432;SDS011;2229;48.708;9.706;2022-09-09T11:22:48;1.73;;;0.60;;
4432;SDS011;2229;48.708;9.706;2022-09-09T11:25:20;4.73;;;1.23;;
4432;SDS011;2229;48.708;9.706;2022-09-09T11:27:56;1.33;;;0.50;;
4432;SDS011;2229;48.708;9.706;2022-09-09T11:30:42;1.43;;;0.70;;
4432;SDS011;2229;48.708;9.706;2022-09-09T11:33:23;3.67;;;0.60;;
4432;SDS011;2229;48.708;9.706;2022-09-09T11:36:16;1.70;;;0.70;;
4432;SDS011;2229;48.708;9.706;2022-09-09T11:39:01;4.50;;;1.00;;
4432;SDS011;2229;48.708;9.706;2022-09-09T11:41:39;1.33;;;0.57;;
4432;SDS011;2229;48.708;9.706;2022-09-09T11:44:09;1.00;;;0.50;;
4432;SDS011;2229;48.708;9.706;2022-09-09T11:46:39;1.10;;;0.63;;
4432;SDS011;2229;48.708;9.706;2022-09-09T11:49:21;1.20;;;0.60;;
4432;SDS011;2229;48.708;9.706;2022-09-09T11:51:53;1.37;;;0.53;;
4432;SDS011;2229;48.708;9.706;2022-09-09T11:54:26;1.00;;;0.30;;
4432;SDS011;2229;48.708;9.706;2022-09-09T11:56:59;2.20;;;0.70;;
4432;SDS011;2229;48.708;9.706;2022-09-09T11:59:27;1.43;;;0.60;;
4432;SDS011;2229;48.708;9.706;2022-09-09T12:01:58;2.30;;;0.70;;
4432;SDS011;2229;48.708;9.706;2022-09-09T12:04:30;1.30;;;0.40;;
4432;SDS011;2229;48.708;9.706;2022-09-09T12:07:03;1.87;;;0.87;;
4432;SDS011;2229;48.708;9.706;2022-09-09T12:09:33;2.40;;;0.70;;
4432;SDS011;2229;48.708;9.706;2022-09-09T12:12:24;2.60;;;0.70;;
4432;SDS011;2229;48.708;9.706;2022-09-09T12:14:56;1.47;;;0.60;;
4432;SDS011;2229;48.708;9.706;2022-09-09T12:17:30;2.50;;;0.73;;
4432;SDS011;2229;48.708;9.706;2022-09-09T12:20:04;1.57;;;0.70;;
4432;SDS011;2229;48.708;9.706;2022-09-09T12:22:41;5.83;;;0.87;;
4432;SDS011;2229;48.708;9.706;2022-09-09T12:25:19;1.00;;;0.40;;
4432;SDS011;2229;48.708;9.706;2022-09-09T12:27:57;1.83;;;0.60;;
4432;SDS011;2229;48.708;9.706;2022-09-09T12:30:31;1.83;;;0.60;;
4432;SDS011;2229;48.708;9.706;2022-09-09T12:33:08;1.90;;;0.60;;
4432;SDS011;2229;48.708;9.706;2022-09-09T12:35:40;1.60;;;0.77;;
4432;SDS011;2229;48.708;9.706;2022-09-09T12:38:11;1.67;;;0.60;;
4432;SDS011;2229;48.708;9.706;2022-09-09T12:40:53;1.73;;;0.57;;
4432;SDS011;2229;48.708;9.706;2022-09-09T12:43:25;1.50;;;0.67;;
4432;SDS011;2229;48.708;9.706;2022-09-09T12:45:54;1.10;;;0.40;;
4432;SDS011;2229;48.708;9.706;2022-09-09T12:48:29;2.50;;;0.57;;
4432;SDS011;2229;48.708;9.706;2022-09-09T12:50:59;4.50;;;0.60;;
4432;SDS011;2229;48.708;9.706;2022-09-09T12:53:29;3.53;;;0.83;;
4432;SDS011;2229;48.708;9.706;2022-09-09T12:56:00;1.00;;;0.40;;
4432;SDS011;2229;48.708;9.706;2022-09-09T12:58:29;4.80;;;0.77;;
4432;SDS011;2229;48.708;9.706;2022-09-09T13:01:01;2.57;;;0.50;;
4432;SDS011;2229;48.708;9.706;2022-09-09T13:03:32;1.50;;;0.50;;
4432;SDS011;2229;48.708;9.706;2022-09-09T13:06:10;1.33;;;0.50;;
4432;SDS011;2229;48.708;9.706;2022-09-09T13:08:39;1.53;;;0.57;;
4432;SDS011;2229;48.708;9.706;2022-09-09T13:11:09;1.10;;;0.40;;
4432;SDS011;2229;48.708;9.706;2022-09-09T13:13:41;1.20;;;0.40;;
4432;SDS011;2229;48.708;9.706;2022-09-09T13:16:18;2.00;;;0.60;;
4432;SDS011;2229;48.708;9.706;2022-09-09T13:18:48;1.20;;;0.50;;
4432;SDS011;2229;48.708;9.706;2022-09-09T13:21:16;1.50;;;0.50;;
4432;SDS011;2229;48.708;9.706;2022-09-09T13:23:48;2.30;;;0.73;;
4432;SDS011;2229;48.708;9.706;2022-09-09T13:26:21;1.00;;;0.40;;
4432;SDS011;2229;48.708;9.706;2022-09-09T13:28:53;1.13;;;0.40;;
4432;SDS011;2229;48.708;9.706;2022-09-09T13:31:36;2.33;;;0.40;;
4432;SDS011;2229;48.708;9.706;2022-09-09T13:34:11;1.43;;;0.57;;
4432;SDS011;2229;48.708;9.706;2022-09-09T13:36:39;1.10;;;0.47;;
4432;SDS011;2229;48.708;9.706;2022-09-09T13:39:13;2.23;;;0.70;;
4432;SDS011;2229;48.708;9.706;2022-09-09T13:41:44;1.20;;;0.40;;
4432;SDS011;2229;48.708;9.706;2022-09-09T13:44:17;1.40;;;0.50;;
4432;SDS011;2229;48.708;9.706;2022-09-09T13:46:58;1.10;;;0.40;;
4432;SDS011;2229;48.708;9.706;2022-09-09T13:49:29;1.20;;;0.40;;
4432;SDS011;2229;48.708;9.706;2022-09-09T13:52:08;4.03;;;0.50;;
4432;SDS011;2229;48.708;9.706;2022-09-09T13:54:37;1.40;;;0.73;;
4432;SDS011;2229;48.708;9.706;2022-09-09T13:57:04;1.57;;;0.73;;
4432;SDS011;2229;48.708;9.706;2022-09-09T13:59:32;1.93;;;0.60;;
4432;SDS011;2229;48.708;9.706;2022-09-09T14:02:02;2.47;;;0.63;;
4432;SDS011;2229;48.708;9.706;2022-09-09T14:04:31;2.10;;;0.67;;
4432;SDS011;2229;48.708;9.706;2022-09-09T14:07:00;1.87;;;0.60;;
4432;SDS011;2229;48.708;9.706;2022-09-09T14:09:31;2.77;;;0.60;;
4432;SDS011;2229;48.708;9.706;2022-09-09T14:11:58;3.67;;;0.73;;
4432;SDS011;2229;48.708;9.706;2022-09-09T14:14:25;4.30;;;0.53;;
4432;SDS011;2229;48.708;9.706;2022-09-09T14:16:55;1.20;;;0.50;;
4432;SDS011;2229;48.708;9.706;2022-09-09T14:19:22;1.27;;;0.60;;
4432;SDS011;2229;48.708;9.706;2022-09-09T14:21:53;1.30;;;0.57;;
4432;SDS011;2229;48.708;9.706;2022-09-09T14:24:20;1.63;;;0.60;;
4432;SDS011;2229;48.708;9.706;2022-09-09T14:26:47;3.00;;;0.40;;
4432;SDS011;2229;48.708;9.706;2022-09-09T14:29:14;1.10;;;0.40;;
4432;SDS011;2229;48.708;9.706;2022-09-09T14:31:42;2.60;;;0.40;;
4432;SDS011;2229;48.708;9.706;2022-09-09T14:34:12;4.87;;;0.50;;
4432;SDS011;2229;48.708;9.706;2022-09-09T14:36:39;1.17;;;0.43;;
4432;SDS011;2229;48.708;9.706;2022-09-09T14:39:08;1.93;;;0.47;;
4432;SDS011;2229;48.708;9.706;2022-09-09T14:41:35;1.20;;;0.40;;
4432;SDS011;2229;48.708;9.706;2022-09-09T14:44:03;2.07;;;0.50;;
4432;SDS011;2229;48.708;9.706;2022-09-09T14:46:30;1.20;;;0.50;;
4432;SDS011;2229;48.708;9.706;2022-09-09T14:48:58;1.20;;;0.50;;
4432;SDS011;2229;48.708;9.706;2022-09-09T14:51:26;1.20;;;0.53;;
4432;SDS011;2229;48.708;9.706;2022-09-09T14:53:54;1.20;;;0.57;;
4432;SDS011;2229;48.708;9.706;2022-09-09T14:56:24;1.20;;;0.40;;
4432;SDS011;2229;48.708;9.706;2022-09-09T14:58:53;1.00;;;0.40;;
4432;SDS011;2229;48.708;9.706;2022-09-09T15:01:21;1.70;;;0.53;;
4432;SDS011;2229;48.708;9.706;2022-09-09T15:03:49;1.27;;;0.43;;
4432;SDS011;2229;48.708;9.706;2022-09-09T15:06:18;1.30;;;0.50;;
4432;SDS011;2229;48.708;9.706;2022-09-09T15:08:46;3.07;;;0.67;;
4432;SDS011;2229;48.708;9.706;2022-09-09T15:11:16;2.40;;;0.70;;
4432;SDS011;2229;48.708;9.706;2022-09-09T15:13:44;1.00;;;0.40;;
4432;SDS011;2229;48.708;9.706;2022-09-09T15:16:13;1.00;;;0.40;;
4432;SDS011;2229;48.708;9.706;2022-09-09T15:18:41;2.37;;;1.10;;
4432;SDS011;2229;48.708;9.706;2022-09-09T15:21:10;5.57;;;0.97;;
4432;SDS011;2229;48.708;9.706;2022-09-09T15:23:37;4.00;;;0.67;;
4432;SDS011;2229;48.708;9.706;2022-09-09T15:26:05;1.00;;;0.40;;
4432;SDS011;2229;48.708;9.706;2022-09-09T15:28:33;1.60;;;0.70;;
4432;SDS011;2229;48.708;9.706;2022-09-09T15:31:06;1.60;;;0.40;;
4432;SDS011;2229;48.708;9.706;2022-09-09T15:33:35;1.83;;;0.50;;
4432;SDS011;2229;48.708;9.706;2022-09-09T15:36:12;1.20;;;0.43;;
4432;SDS011;2229;48.708;9.706;2022-09-09T15:38:40;2.47;;;0.80;;
4432;SDS011;2229;48.708;9.706;2022-09-09T15:41:08;2.83;;;0.60;;
4432;SDS011;2229;48.708;9.706;2022-09-09T15:43:36;1.10;;;0.50;;
4432;SDS011;2229;48.708;9.706;2022-09-09T15:46:08;1.67;;;0.73;;
4432;SDS011;2229;48.708;9.706;2022-09-09T15:48:51;2.17;;;0.60;;
4432;SDS011;2229;48.708;9.706;2022-09-09T15:51:19;2.23;;;0.50;;
4432;SDS011;2229;48.708;9.706;2022-09-09T15:53:47;2.57;;;0.50;;